sensor_id;sensor_type;location;lat;lon;timestamp;pressure;altitude;pressure_sealevel;temperature;humidity
49122;BME280;35529;44.342;25.944;2023-08-17T00:00:13;100761.00;;;23.79;100.00
49122;BME280;35529;44.342;25.944;2023-08-17T00:02:40;100762.66;;;23.74;100.00
49122;BME280;35529;44.342;25.944;2023-08-17T00:05:07;100752.34;;;23.76;100.00
49122;BME280;35529;44.342;25.944;2023-08-17T00:07:33;100752.88;;;23.79;100.00
49122;BME280;35529;44.342;25.944;2023-08-17T00:09:59;100743.91;;;23.83;100.00
49122;BME280;35529;44.342;25.944;2023-08-17T00:12:25;100750.41;;;23.92;100.00
49122;BME280;35529;44.342;25.944;2023-08-17T00:14:52;100743.81;;;24.04;100.00
49122;BME280;35529;44.342;25.944;2023-08-17T00:17:18;100746.22;;;24.10;100.00
49122;BME280;35529;44.342;25.944;2023-08-17T00:19:44;100743.47;;;24.16;100.00
49122;BME280;35529;44.342;25.944;2023-08-17T00:22:11;100740.72;;;24.21;100.00
49122;BME280;35529;44.342;25.944;2023-08-17T00:24:37;100729.84;;;24.26;100.00
49122;BME280;35529;44.342;25.944;2023-08-17T00:27:03;100733.31;;;24.32;100.00
49122;BME280;35529;44.342;25.944;2023-08-17T00:29:29;100735.19;;;24.36;100.00
49122;BME280;35529;44.342;25.944;2023-08-17T00:31:56;100727.84;;;24.42;100.00
49122;BME280;35529;44.342;25.944;2023-08-17T00:34:22;100731.84;;;24.44;100.00
49122;BME280;35529;44.342;25.944;2023-08-17T00:36:48;100729.94;;;24.50;100.00
49122;BME280;35529;44.342;25.944;2023-08-17T00:39:14;100723.63;;;24.55;100.00
49122;BME280;35529;44.342;25.944;2023-08-17T00:41:40;100729.03;;;24.60;100.00
49122;BME280;35529;44.342;25.944;2023-08-17T00:44:06;100723.31;;;24.62;100.00
49122;BME280;35529;44.342;25.944;2023-08-17T00:46:33;100730.09;;;24.64;100.00
49122;BME280;35529;44.342;25.944;2023-08-17T00:48:59;100726.81;;;24.67;100.00
49122;BME280;35529;44.342;25.944;2023-08-17T00:51:26;100726.59;;;24.64;100.00
49122;BME280;35529;44.342;25.944;2023-08-17T00:53:53;100728.47;;;24.63;100.00
49122;BME280;35529;44.342;25.944;2023-08-17T00:56:20;100730.91;;;24.65;100.00
49122;BME280;35529;44.342;25.944;2023-08-17T00:58:46;100727.09;;;24.66;100.00
49122;BME280;35529;44.342;25.944;2023-08-17T01:01:13;100734.44;;;24.65;100.00
49122;BME280;35529;44.342;25.944;2023-08-17T01:03:39;100735.25;;;24.66;100.00
49122;BME280;35529;44.342;25.944;2023-08-17T01:06:06;100728.47;;;24.63;100.00
49122;BME280;35529;44.342;25.944;2023-08-17T01:08:32;100722.50;;;24.61;100.00
49122;BME280;35529;44.342;25.944;2023-08-17T01:11:12;100725.78;;;24.58;100.00
49122;BME280;35529;44.342;25.944;2023-08-17T01:16:09;100720.66;;;24.51;100.00
49122;BME280;35529;44.342;25.944;2023-08-17T01:18:38;100721.47;;;24.57;100.00
49122;BME280;35529;44.342;25.944;2023-08-17T01:21:06;100725.84;;;24.53;100.00
49122;BME280;35529;44.342;25.944;2023-08-17T01:23:32;100723.94;;;24.53;100.00
49122;BME280;35529;44.342;25.944;2023-08-17T01:25:58;100718.56;;;24.43;100.00
49122;BME280;35529;44.342;25.944;2023-08-17T01:28:24;100718.59;;;24.38;100.00
49122;BME280;35529;44.342;25.944;2023-08-17T01:31:08;100728.16;;;24.35;100.00
49122;BME280;35529;44.342;25.944;2023-08-17T01:33:42;100733.91;;;24.29;100.00
49122;BME280;35529;44.342;25.944;2023-08-17T01:38:36;100728.31;;;24.09;100.00
49122;BME280;35529;44.342;25.944;2023-08-17T01:41:04;100730.53;;;24.02;100.00
49122;BME280;35529;44.342;25.944;2023-08-17T01:43:31;100728.91;;;24.01;100.00
49122;BME280;35529;44.342;25.944;2023-08-17T01:45:58;100728.91;;;24.01;100.00
49122;BME280;35529;44.342;25.944;2023-08-17T01:48:24;100734.63;;;24.00;100.00
49122;BME280;35529;44.342;25.944;2023-08-17T01:50:50;100728.44;;;23.94;100.00
49122;BME280;35529;44.342;25.944;2023-08-17T01:53:16;100730.63;;;23.82;100.00
49122;BME280;35529;44.342;25.944;2023-08-17T01:55:42;100735.56;;;23.69;100.00
49122;BME280;35529;44.342;25.944;2023-08-17T01:58:08;100730.13;;;23.69;100.00
49122;BME280;35529;44.342;25.944;2023-08-17T02:00:34;100735.03;;;23.67;100.00
49122;BME280;35529;44.342;25.944;2023-08-17T02:03:00;100723.13;;;23.63;100.00
49122;BME280;35529;44.342;25.944;2023-08-17T02:05:27;100729.34;;;23.64;100.00
49122;BME280;35529;44.342;25.944;2023-08-17T02:07:55;100727.19;;;23.66;100.00
49122;BME280;35529;44.342;25.944;2023-08-17T02:10:21;100726.94;;;23.62;100.00
49122;BME280;35529;44.342;25.944;2023-08-17T02:12:47;100727.72;;;23.63;100.00
49122;BME280;35529;44.342;25.944;2023-08-17T02:15:13;100725.59;;;23.59;100.00
49122;BME280;35529;44.342;25.944;2023-08-17T02:17:39;100725.88;;;23.53;100.00
49122;BME280;35529;44.342;25.944;2023-08-17T02:20:05;100729.19;;;23.39;100.00
49122;BME280;35529;44.342;25.944;2023-08-17T02:22:32;100728.13;;;23.30;100.00
49122;BME280;35529;44.342;25.944;2023-08-17T02:24:58;100732.22;;;23.22;100.00
49122;BME280;35529;44.342;25.944;2023-08-17T02:27:24;100737.09;;;23.10;100.00
49122;BME280;35529;44.342;25.944;2023-08-17T02:29:50;100733.88;;;23.03;100.00
49122;BME280;35529;44.342;25.944;2023-08-17T02:32:16;100741.44;;;22.96;100.00
49122;BME280;35529;44.342;25.944;2023-08-17T02:34:42;100735.75;;;22.97;100.00
49122;BME280;35529;44.342;25.944;2023-08-17T02:37:08;100734.94;;;22.97;100.00
49122;BME280;35529;44.342;25.944;2023-08-17T02:39:34;100736.03;;;22.90;100.00
49122;BME280;35529;44.342;25.944;2023-08-17T02:42:00;100743.88;;;22.97;100.00
49122;BME280;35529;44.342;25.944;2023-08-17T02:44:26;100741.72;;;22.89;100.00
49122;BME280;35529;44.342;25.944;2023-08-17T02:46:54;100743.34;;;22.80;100.00
49122;BME280;35529;44.342;25.944;2023-08-17T02:49:20;100745.53;;;22.77;100.00
49122;BME280;35529;44.342;25.944;2023-08-17T02:51:46;100749.59;;;22.80;100.00
49122;BME280;35529;44.342;25.944;2023-08-17T02:54:12;100739.84;;;22.84;100.00
49122;BME280;35529;44.342;25.944;2023-08-17T02:56:38;100746.06;;;22.85;100.00
49122;BME280;35529;44.342;25.944;2023-08-17T02:59:04;100738.22;;;22.83;100.00
49122;BME280;35529;44.342;25.944;2023-08-17T03:01:30;100735.78;;;22.82;100.00
49122;BME280;35529;44.342;25.944;2023-08-17T03:03:57;100746.63;;;22.87;100.00
49122;BME280;35529;44.342;25.944;2023-08-17T03:06:24;100739.81;;;22.94;100.00
49122;BME280;35529;44.342;25.944;2023-08-17T03:08:50;100743.88;;;23.02;100.00
49122;BME280;35529;44.342;25.944;2023-08-17T03:11:18;100747.94;;;23.05;100.00
49122;BME280;35529;44.342;25.944;2023-08-17T03:13:44;100749.56;;;23.11;100.00
49122;BME280;35529;44.342;25.944;2023-08-17T03:16:13;100748.75;;;23.16;100.00
49122;BME280;35529;44.342;25.944;2023-08-17T03:18:39;100749.81;;;23.20;100.00
49122;BME280;35529;44.342;25.944;2023-08-17T03:21:05;100747.38;;;23.23;100.00
49122;BME280;35529;44.342;25.944;2023-08-17T03:23:32;100745.75;;;23.27;100.00
49122;BME280;35529;44.342;25.944;2023-08-17T03:25:58;100755.22;;;23.30;100.00
49122;BME280;35529;44.342;25.944;2023-08-17T03:28:24;100742.75;;;23.29;100.00
49122;BME280;35529;44.342;25.944;2023-08-17T03:30:55;100746.00;;;23.31;100.00
49122;BME280;35529;44.342;25.944;2023-08-17T03:33:21;100740.81;;;23.40;100.00
49122;BME280;35529;44.342;25.944;2023-08-17T03:35:47;100744.34;;;23.46;100.00
49122;BME280;35529;44.342;25.944;2023-08-17T03:38:13;100746.22;;;23.50;100.00
49122;BME280;35529;44.342;25.944;2023-08-17T03:40:39;100742.09;;;23.63;100.00
49122;BME280;35529;44.342;25.944;2023-08-17T03:43:05;100744.22;;;23.76;100.00
49122;BME280;35529;44.342;25.944;2023-08-17T03:45:32;100739.81;;;23.91;100.00
49122;BME280;35529;44.342;25.944;2023-08-17T03:47:58;100743.25;;;24.07;100.00
49122;BME280;35529;44.342;25.944;2023-08-17T03:50:25;100747.78;;;24.22;100.00
49122;BME280;35529;44.342;25.944;2023-08-17T03:52:52;100744.19;;;24.32;100.00
49122;BME280;35529;44.342;25.944;2023-08-17T03:55:18;100745.22;;;24.41;100.00
49122;BME280;35529;44.342;25.944;2023-08-17T03:57:44;100745.66;;;24.53;100.00
49122;BME280;35529;44.342;25.944;2023-08-17T04:00:10;100744.53;;;24.59;100.00
49122;BME280;35529;44.342;25.944;2023-08-17T04:02:36;100744.72;;;24.68;100.00
49122;BME280;35529;44.342;25.944;2023-08-17T04:05:03;100748.75;;;24.76;100.00
49122;BME280;35529;44.342;25.944;2023-08-17T04:07:29;100748.41;;;24.83;100.00
49122;BME280;35529;44.342;25.944;2023-08-17T04:09:55;100745.06;;;24.91;100.00
49122;BME280;35529;44.342;25.944;2023-08-17T04:12:21;100753.13;;;25.01;100.00
49122;BME280;35529;44.342;25.944;2023-08-17T04:14:47;100752.03;;;25.02;100.00
49122;BME280;35529;44.342;25.944;2023-08-17T04:17:13;100747.06;;;25.09;100.00
49122;BME280;35529;44.342;25.944;2023-08-17T04:19:39;100750.78;;;25.19;100.00
49122;BME280;35529;44.342;25.944;2023-08-17T04:22:05;100754.28;;;25.19;100.00
49122;BME280;35529;44.342;25.944;2023-08-17T04:24:31;100753.94;;;25.26;100.00
49122;BME280;35529;44.342;25.944;2023-08-17T04:26:57;100757.97;;;25.34;100.00
49122;BME280;35529;44.342;25.944;2023-08-17T04:29:24;100768.78;;;25.39;100.00
49122;BME280;35529;44.342;25.944;2023-08-17T04:31:50;100758.06;;;25.48;100.00
49122;BME280;35529;44.342;25.944;2023-08-17T04:34:16;100766.16;;;25.53;100.00
49122;BME280;35529;44.342;25.944;2023-08-17T04:36:42;100759.41;;;25.50;100.00
49122;BME280;35529;44.342;25.944;2023-08-17T04:39:08;100765.63;;;25.56;100.00
49122;BME280;35529;44.342;25.944;2023-08-17T04:41:35;100765.25;;;25.63;100.00
49122;BME280;35529;44.342;25.944;2023-08-17T04:44:01;100774.91;;;25.74;100.00
49122;BME280;35529;44.342;25.944;2023-08-17T04:46:27;100779.44;;;25.79;100.00
49122;BME280;35529;44.342;25.944;2023-08-17T04:48:53;100778.28;;;25.85;100.00
49122;BME280;35529;44.342;25.944;2023-08-17T04:51:19;100777.34;;;25.94;100.00
49122;BME280;35529;44.342;25.944;2023-08-17T04:53:45;100782.41;;;26.01;100.00
49122;BME280;35529;44.342;25.944;2023-08-17T04:56:11;100779.69;;;26.01;100.00
49122;BME280;35529;44.342;25.944;2023-08-17T04:58:37;100777.16;;;26.10;100.00
49122;BME280;35529;44.342;25.944;2023-08-17T05:01:03;100766.72;;;26.17;100.00
49122;BME280;35529;44.342;25.944;2023-08-17T05:03:29;100767.66;;;26.26;100.00
49122;BME280;35529;44.342;25.944;2023-08-17T05:05:57;100771.03;;;26.37;100.00
49122;BME280;35529;44.342;25.944;2023-08-17T05:08:23;100764.88;;;26.32;100.00
49122;BME280;35529;44.342;25.944;2023-08-17T05:10:49;100759.72;;;26.30;100.00
49122;BME280;35529;44.342;25.944;2023-08-17T05:13:15;100765.47;;;26.29;100.00
49122;BME280;35529;44.342;25.944;2023-08-17T05:15:41;100760.22;;;26.32;100.00
49122;BME280;35529;44.342;25.944;2023-08-17T05:18:07;100753.75;;;26.47;100.00
49122;BME280;35529;44.342;25.944;2023-08-17T05:20:33;100756.59;;;26.56;100.00
49122;BME280;35529;44.342;25.944;2023-08-17T05:23:00;100763.28;;;26.64;100.00
49122;BME280;35529;44.342;25.944;2023-08-17T05:25:26;100759.28;;;26.75;100.00
49122;BME280;35529;44.342;25.944;2023-08-17T05:27:52;100761.53;;;26.87;100.00
49122;BME280;35529;44.342;25.944;2023-08-17T05:30:18;100755.00;;;26.88;100.00
49122;BME280;35529;44.342;25.944;2023-08-17T05:32:44;100759.97;;;27.00;100.00
49122;BME280;35529;44.342;25.944;2023-08-17T05:35:11;100757.63;;;27.07;100.00
49122;BME280;35529;44.342;25.944;2023-08-17T05:37:37;100758.16;;;27.23;100.00
49122;BME280;35529;44.342;25.944;2023-08-17T05:40:03;100763.50;;;27.28;100.00
49122;BME280;35529;44.342;25.944;2023-08-17T05:45:09;100766.47;;;27.46;100.00
49122;BME280;35529;44.342;25.944;2023-08-17T05:47:35;100755.56;;;27.59;100.00
49122;BME280;35529;44.342;25.944;2023-08-17T05:50:02;100753.44;;;27.70;100.00
49122;BME280;35529;44.342;25.944;2023-08-17T05:52:28;100763.41;;;27.75;100.00
49122;BME280;35529;44.342;25.944;2023-08-17T05:54:57;100754.91;;;27.76;100.00
49122;BME280;35529;44.342;25.944;2023-08-17T05:57:23;100743.91;;;27.82;100.00
49122;BME280;35529;44.342;25.944;2023-08-17T05:59:49;100750.25;;;27.91;100.00
49122;BME280;35529;44.342;25.944;2023-08-17T06:02:19;100746.91;;;27.94;100.00
49122;BME280;35529;44.342;25.944;2023-08-17T06:04:46;100743.19;;;28.04;100.00
49122;BME280;35529;44.342;25.944;2023-08-17T06:07:16;100747.59;;;28.14;100.00
49122;BME280;35529;44.342;25.944;2023-08-17T06:10:13;100741.56;;;28.25;100.00
49122;BME280;35529;44.342;25.944;2023-08-17T06:15:51;100747.16;;;28.43;100.00
49122;BME280;35529;44.342;25.944;2023-08-17T06:18:18;100743.31;;;28.44;100.00
49122;BME280;35529;44.342;25.944;2023-08-17T06:20:44;100743.16;;;28.49;100.00
49122;BME280;35529;44.342;25.944;2023-08-17T06:23:12;100753.75;;;28.65;100.00
49122;BME280;35529;44.342;25.944;2023-08-17T06:25:38;100752.00;;;28.69;100.00
49122;BME280;35529;44.342;25.944;2023-08-17T06:28:05;100751.88;;;28.74;100.00
49122;BME280;35529;44.342;25.944;2023-08-17T06:30:31;100760.88;;;28.74;100.00
49122;BME280;35529;44.342;25.944;2023-08-17T06:32:58;100758.69;;;28.85;100.00
49122;BME280;35529;44.342;25.944;2023-08-17T06:35:24;100759.84;;;28.93;100.00
49122;BME280;35529;44.342;25.944;2023-08-17T06:37:51;100757.97;;;29.02;100.00
49122;BME280;35529;44.342;25.944;2023-08-17T06:40:37;100755.09;;;29.07;100.00
49122;BME280;35529;44.342;25.944;2023-08-17T06:45:53;100764.00;;;29.22;100.00
49122;BME280;35529;44.342;25.944;2023-08-17T06:48:19;100761.47;;;29.25;100.00
49122;BME280;35529;44.342;25.944;2023-08-17T06:50:45;100763.59;;;29.37;100.00
49122;BME280;35529;44.342;25.944;2023-08-17T06:53:12;100765.91;;;29.53;100.00
49122;BME280;35529;44.342;25.944;2023-08-17T06:55:38;100760.13;;;29.63;100.00
49122;BME280;35529;44.342;25.944;2023-08-17T06:58:04;100761.75;;;29.73;100.00
49122;BME280;35529;44.342;25.944;2023-08-17T07:00:33;100758.38;;;29.76;100.00
49122;BME280;35529;44.342;25.944;2023-08-17T07:03:01;100763.09;;;29.93;100.00
49122;BME280;35529;44.342;25.944;2023-08-17T07:11:23;100766.00;;;30.32;100.00
49122;BME280;35529;44.342;25.944;2023-08-17T07:13:49;100764.06;;;30.32;100.00
49122;BME280;35529;44.342;25.944;2023-08-17T07:16:18;100760.84;;;30.30;100.00
49122;BME280;35529;44.342;25.944;2023-08-17T07:18:44;100771.16;;;30.33;100.00
49122;BME280;35529;44.342;25.944;2023-08-17T07:21:11;100767.47;;;30.47;100.00
49122;BME280;35529;44.342;25.944;2023-08-17T07:23:37;100768.38;;;30.59;100.00
49122;BME280;35529;44.342;25.944;2023-08-17T07:26:03;100763.91;;;30.64;100.00
49122;BME280;35529;44.342;25.944;2023-08-17T07:28:29;100766.75;;;30.76;100.00
49122;BME280;35529;44.342;25.944;2023-08-17T07:30:55;100776.41;;;30.82;100.00
49122;BME280;35529;44.342;25.944;2023-08-17T07:33:22;100779.47;;;30.89;100.00
49122;BME280;35529;44.342;25.944;2023-08-17T07:35:48;100771.06;;;30.86;100.00
49122;BME280;35529;44.342;25.944;2023-08-17T07:38:14;100773.31;;;30.92;100.00
49122;BME280;35529;44.342;25.944;2023-08-17T07:40:40;100774.63;;;31.04;100.00
49122;BME280;35529;44.342;25.944;2023-08-17T07:43:08;100769.34;;;31.20;100.00
49122;BME280;35529;44.342;25.944;2023-08-17T07:45:34;100769.81;;;31.31;100.00
49122;BME280;35529;44.342;25.944;2023-08-17T07:48:00;100771.56;;;31.35;100.00
49122;BME280;35529;44.342;25.944;2023-08-17T07:50:27;100772.78;;;31.47;100.00
49122;BME280;35529;44.342;25.944;2023-08-17T07:52:53;100774.69;;;31.55;100.00
49122;BME280;35529;44.342;25.944;2023-08-17T07:55:19;100773.53;;;31.56;100.00
49122;BME280;35529;44.342;25.944;2023-08-17T07:57:45;100775.47;;;31.55;100.00
49122;BME280;35529;44.342;25.944;2023-08-17T08:00:11;100764.50;;;31.55;100.00
49122;BME280;35529;44.342;25.944;2023-08-17T08:02:37;100760.47;;;31.62;100.00
49122;BME280;35529;44.342;25.944;2023-08-17T08:05:03;100770.28;;;31.63;100.00
49122;BME280;35529;44.342;25.944;2023-08-17T08:07:30;100758.00;;;31.69;100.00
49122;BME280;35529;44.342;25.944;2023-08-17T08:09:56;100756.53;;;31.71;100.00
49122;BME280;35529;44.342;25.944;2023-08-17T08:12:22;100756.78;;;31.79;99.00
49122;BME280;35529;44.342;25.944;2023-08-17T08:14:48;100743.78;;;31.88;100.00
49122;BME280;35529;44.342;25.944;2023-08-17T08:17:15;100754.44;;;31.89;99.29
49122;BME280;35529;44.342;25.944;2023-08-17T08:19:41;100759.53;;;32.00;97.23
49122;BME280;35529;44.342;25.944;2023-08-17T08:22:07;100751.69;;;32.11;96.30
49122;BME280;35529;44.342;25.944;2023-08-17T08:24:33;100750.38;;;32.17;97.39
49122;BME280;35529;44.342;25.944;2023-08-17T08:27:00;100756.25;;;32.28;94.15
49122;BME280;35529;44.342;25.944;2023-08-17T08:29:29;100756.03;;;32.20;93.33
49122;BME280;35529;44.342;25.944;2023-08-17T08:31:55;100761.41;;;32.29;95.54
49122;BME280;35529;44.342;25.944;2023-08-17T08:34:23;100770.63;;;32.46;93.31
49122;BME280;35529;44.342;25.944;2023-08-17T08:36:49;100775.72;;;32.56;92.03
49122;BME280;35529;44.342;25.944;2023-08-17T08:39:15;100757.94;;;32.53;92.74
49122;BME280;35529;44.342;25.944;2023-08-17T08:41:41;100757.03;;;32.49;91.02
49122;BME280;35529;44.342;25.944;2023-08-17T08:44:07;100758.63;;;32.50;91.36
49122;BME280;35529;44.342;25.944;2023-08-17T08:46:33;100755.19;;;32.53;90.97
49122;BME280;35529;44.342;25.944;2023-08-17T08:49:00;100758.16;;;32.48;90.34
49122;BME280;35529;44.342;25.944;2023-08-17T08:51:27;100752.56;;;32.57;91.61
49122;BME280;35529;44.342;25.944;2023-08-17T08:54:00;100741.41;;;32.74;88.78
49122;BME280;35529;44.342;25.944;2023-08-17T08:56:31;100747.59;;;32.71;87.34
49122;BME280;35529;44.342;25.944;2023-08-17T08:58:58;100737.91;;;32.53;87.52
49122;BME280;35529;44.342;25.944;2023-08-17T09:01:27;100735.50;;;32.51;89.37
49122;BME280;35529;44.342;25.944;2023-08-17T09:03:54;100738.00;;;32.56;87.42
49122;BME280;35529;44.342;25.944;2023-08-17T09:06:21;100730.94;;;32.55;87.59
49122;BME280;35529;44.342;25.944;2023-08-17T09:08:49;100740.56;;;32.62;85.91
49122;BME280;35529;44.342;25.944;2023-08-17T09:11:15;100736.09;;;32.57;87.00
49122;BME280;35529;44.342;25.944;2023-08-17T09:13:41;100730.59;;;32.57;85.54
49122;BME280;35529;44.342;25.944;2023-08-17T09:16:08;100730.16;;;32.67;85.43
49122;BME280;35529;44.342;25.944;2023-08-17T09:18:36;100727.16;;;32.60;85.54
49122;BME280;35529;44.342;25.944;2023-08-17T09:21:02;100714.53;;;32.59;84.51
49122;BME280;35529;44.342;25.944;2023-08-17T09:23:28;100728.28;;;32.59;83.09
49122;BME280;35529;44.342;25.944;2023-08-17T09:25:54;100729.28;;;32.75;78.25
49122;BME280;35529;44.342;25.944;2023-08-17T09:28:24;100713.94;;;32.87;79.57
49122;BME280;35529;44.342;25.944;2023-08-17T09:30:54;100722.50;;;32.73;79.06
49122;BME280;35529;44.342;25.944;2023-08-17T09:33:20;100728.00;;;32.73;78.22
49122;BME280;35529;44.342;25.944;2023-08-17T09:35:47;100717.94;;;32.77;78.64
49122;BME280;35529;44.342;25.944;2023-08-17T09:38:13;100721.38;;;32.86;78.80
49122;BME280;35529;44.342;25.944;2023-08-17T09:40:39;100709.91;;;32.97;79.26
49122;BME280;35529;44.342;25.944;2023-08-17T09:43:05;100718.16;;;32.97;78.88
49122;BME280;35529;44.342;25.944;2023-08-17T09:45:31;100720.72;;;33.14;78.33
49122;BME280;35529;44.342;25.944;2023-08-17T09:47:58;100726.56;;;33.25;75.81
49122;BME280;35529;44.342;25.944;2023-08-17T09:53:19;100713.09;;;33.23;74.75
49122;BME280;35529;44.342;25.944;2023-08-17T09:55:46;100708.44;;;33.24;75.96
49122;BME280;35529;44.342;25.944;2023-08-17T09:58:12;100720.38;;;33.28;74.48
49122;BME280;35529;44.342;25.944;2023-08-17T10:00:45;100723.47;;;33.39;75.50
49122;BME280;35529;44.342;25.944;2023-08-17T10:03:30;100716.94;;;33.31;71.96
49122;BME280;35529;44.342;25.944;2023-08-17T10:06:04;100716.47;;;33.41;69.74
49122;BME280;35529;44.342;25.944;2023-08-17T10:08:31;100715.41;;;33.46;69.73
49122;BME280;35529;44.342;25.944;2023-08-17T10:10:59;100708.53;;;33.52;68.34
49122;BME280;35529;44.342;25.944;2023-08-17T10:18:45;100703.34;;;33.63;65.84
49122;BME280;35529;44.342;25.944;2023-08-17T10:21:23;100705.53;;;33.57;64.02
49122;BME280;35529;44.342;25.944;2023-08-17T10:23:49;100714.16;;;33.56;64.57
49122;BME280;35529;44.342;25.944;2023-08-17T10:26:26;100701.03;;;33.65;64.91
49122;BME280;35529;44.342;25.944;2023-08-17T10:28:52;100711.69;;;33.79;63.57
49122;BME280;35529;44.342;25.944;2023-08-17T10:31:20;100692.50;;;33.70;59.41
49122;BME280;35529;44.342;25.944;2023-08-17T10:33:46;100697.13;;;33.66;61.65
49122;BME280;35529;44.342;25.944;2023-08-17T10:36:14;100683.00;;;33.80;61.81
49122;BME280;35529;44.342;25.944;2023-08-17T10:38:41;100687.06;;;33.99;62.86
49122;BME280;35529;44.342;25.944;2023-08-17T10:41:10;100693.38;;;33.99;58.39
49122;BME280;35529;44.342;25.944;2023-08-17T10:46:38;100682.75;;;33.73;56.76
49122;BME280;35529;44.342;25.944;2023-08-17T10:49:27;100675.88;;;33.79;56.12
49122;BME280;35529;44.342;25.944;2023-08-17T10:52:01;100693.78;;;33.85;57.47
49122;BME280;35529;44.342;25.944;2023-08-17T10:54:35;100685.59;;;33.89;60.02
49122;BME280;35529;44.342;25.944;2023-08-17T10:57:24;100683.13;;;34.00;58.74
49122;BME280;35529;44.342;25.944;2023-08-17T11:00:04;100682.53;;;34.06;60.16
49122;BME280;35529;44.342;25.944;2023-08-17T11:02:31;100670.22;;;34.16;60.46
49122;BME280;35529;44.342;25.944;2023-08-17T11:04:58;100668.31;;;34.49;59.71
49122;BME280;35529;44.342;25.944;2023-08-17T11:07:24;100671.50;;;34.67;58.43
49122;BME280;35529;44.342;25.944;2023-08-17T11:09:53;100673.94;;;34.68;58.03
49122;BME280;35529;44.342;25.944;2023-08-17T11:12:25;100669.38;;;34.76;56.37
49122;BME280;35529;44.342;25.944;2023-08-17T11:14:51;100671.53;;;34.83;53.77
49122;BME280;35529;44.342;25.944;2023-08-17T11:17:21;100674.00;;;34.88;53.92
49122;BME280;35529;44.342;25.944;2023-08-17T11:19:47;100665.97;;;34.99;53.85
49122;BME280;35529;44.342;25.944;2023-08-17T11:22:16;100663.22;;;34.99;54.66
49122;BME280;35529;44.342;25.944;2023-08-17T11:24:43;100648.25;;;35.16;55.64
49122;BME280;35529;44.342;25.944;2023-08-17T11:27:09;100659.78;;;35.37;53.71
49122;BME280;35529;44.342;25.944;2023-08-17T11:29:36;100661.75;;;35.56;51.87
49122;BME280;35529;44.342;25.944;2023-08-17T11:32:03;100669.09;;;35.68;52.27
49122;BME280;35529;44.342;25.944;2023-08-17T11:34:30;100655.13;;;35.41;53.55
49122;BME280;35529;44.342;25.944;2023-08-17T11:36:57;100653.59;;;35.44;55.79
49122;BME280;35529;44.342;25.944;2023-08-17T11:39:23;100656.03;;;35.30;54.98
49122;BME280;35529;44.342;25.944;2023-08-17T11:41:49;100657.22;;;35.48;52.42
49122;BME280;35529;44.342;25.944;2023-08-17T11:44:18;100656.31;;;35.80;50.17
49122;BME280;35529;44.342;25.944;2023-08-17T11:46:47;100662.44;;;35.89;46.89
49122;BME280;35529;44.342;25.944;2023-08-17T11:49:13;100650.63;;;35.92;48.55
49122;BME280;35529;44.342;25.944;2023-08-17T11:51:39;100652.91;;;35.86;50.25
49122;BME280;35529;44.342;25.944;2023-08-17T11:54:06;100640.44;;;35.96;50.39
49122;BME280;35529;44.342;25.944;2023-08-17T11:56:33;100641.31;;;36.00;52.03
49122;BME280;35529;44.342;25.944;2023-08-17T11:59:07;100642.91;;;36.01;48.43
49122;BME280;35529;44.342;25.944;2023-08-17T12:01:34;100646.16;;;36.07;46.79
49122;BME280;35529;44.342;25.944;2023-08-17T12:04:02;100649.41;;;36.13;50.04
49122;BME280;35529;44.342;25.944;2023-08-17T12:06:30;100647.00;;;35.88;52.94
49122;BME280;35529;44.342;25.944;2023-08-17T12:08:56;100637.13;;;35.87;53.76
49122;BME280;35529;44.342;25.944;2023-08-17T12:11:25;100630.84;;;35.90;54.41
49122;BME280;35529;44.342;25.944;2023-08-17T12:13:52;100634.03;;;35.72;54.15
49122;BME280;35529;44.342;25.944;2023-08-17T12:16:18;100632.59;;;35.59;54.04
49122;BME280;35529;44.342;25.944;2023-08-17T12:18:45;100629.94;;;35.27;53.78
49122;BME280;35529;44.342;25.944;2023-08-17T12:21:13;100640.97;;;35.07;58.56
49122;BME280;35529;44.342;25.944;2023-08-17T12:23:39;100629.78;;;35.20;57.35
49122;BME280;35529;44.342;25.944;2023-08-17T12:26:06;100636.09;;;35.36;57.09
49122;BME280;35529;44.342;25.944;2023-08-17T12:28:32;100631.38;;;35.37;57.47
49122;BME280;35529;44.342;25.944;2023-08-17T12:30:59;100626.72;;;35.61;55.02
49122;BME280;35529;44.342;25.944;2023-08-17T12:33:25;100639.13;;;35.90;50.90
49122;BME280;35529;44.342;25.944;2023-08-17T12:35:52;100628.53;;;35.92;46.95
49122;BME280;35529;44.342;25.944;2023-08-17T12:38:18;100629.97;;;36.05;49.90
49122;BME280;35529;44.342;25.944;2023-08-17T12:40:44;100619.72;;;36.29;48.67
49122;BME280;35529;44.342;25.944;2023-08-17T12:43:10;100616.66;;;36.61;51.36
49122;BME280;35529;44.342;25.944;2023-08-17T12:45:36;100609.75;;;36.74;50.70
49122;BME280;35529;44.342;25.944;2023-08-17T12:48:02;100605.28;;;36.66;51.49
49122;BME280;35529;44.342;25.944;2023-08-17T12:50:28;100600.19;;;36.68;48.81
49122;BME280;35529;44.342;25.944;2023-08-17T12:52:54;100603.25;;;36.36;50.25
49122;BME280;35529;44.342;25.944;2023-08-17T12:55:20;100598.25;;;35.99;51.55
49122;BME280;35529;44.342;25.944;2023-08-17T12:57:46;100605.84;;;35.83;51.92
49122;BME280;35529;44.342;25.944;2023-08-17T13:00:13;100609.00;;;36.04;51.55
49122;BME280;35529;44.342;25.944;2023-08-17T13:02:39;100596.75;;;36.25;46.13